Time;durP1;ratioP1;P1;durP2;ratioP2;P2;SDS_P1;SDS_P2;PMS_P1;PMS_P2;Temp;Humidity;BMP_temperature;BMP_pressure;BME280_temperature;BME280_humidity;BME280_pressure;Samples;Min_cycle;Max_cycle;Signal;HPM_P1;HPM_P2
2022/07/31 00:01:22;;;;;;;;;;;25.00;85.50;;;;;;5076495;28;19927;-67
2022/07/31 00:03:48;;;;;;;;;;;25.00;85.50;;;;;;5076802;28;19913;-67
2022/07/31 00:06:13;;;;;;;;;;;25.00;85.50;;;;;;5076842;28;19916;-67
2022/07/31 00:08:39;;;;;;;;;;;25.00;85.50;;;;;;5076840;28;19909;-67
2022/07/31 00:11:04;;;;;;;;;;;25.00;85.50;;;;;;5076561;28;19909;-67
2022/07/31 00:13:30;;;;;;;;;;;25.00;85.40;;;;;;5058870;28;19915;-67
2022/07/31 00:15:55;;;;;;;;;;;25.00;85.40;;;;;;5076289;28;19947;-67
2022/07/31 00:18:21;;;;;;;;;;;25.00;85.50;;;;;;5077084;28;19951;-67
2022/07/31 00:20:48;;;;;;;;;;;25.00;85.50;;;;;;5058673;28;19908;-67
2022/07/31 00:23:13;;;;;;;;;;;25.00;85.50;;;;;;5076613;28;19963;-67
2022/07/31 00:25:39;;;;;;;;;;;25.00;85.50;;;;;;5076002;28;19919;-67
2022/07/31 00:28:05;;;;;;;;;;;25.00;85.50;;;;;;5058549;28;19915;-67
2022/07/31 00:30:30;;;;;;;;;;;25.00;85.50;;;;;;5076460;28;20003;-67
2022/07/31 00:32:56;;;;;;;;;;;25.00;85.50;;;;;;5076473;28;19959;-67
2022/07/31 00:35:21;;;;;;;;;;;25.00;85.50;;;;;;5076407;28;19916;-67
2022/07/31 00:37:47;;;;;;;;;;;25.00;85.50;;;;;;5076350;28;19999;-66
2022/07/31 00:40:14;;;;;;;;;;;25.00;85.50;;;;;;5076182;28;19961;-67
2022/07/31 00:42:40;;;;;;;;;;;25.00;85.60;;;;;;5058372;28;19913;-67
2022/07/31 00:45:06;;;;;;;;;;;24.90;85.50;;;;;;5076260;28;19919;-67
2022/07/31 00:47:32;;;;;;;;;;;25.00;85.60;;;;;;5076007;28;19919;-67
2022/07/31 00:49:58;;;;;;;;;;;25.00;85.60;;;;;;5075717;28;19908;-67
2022/07/31 00:52:24;;;;;;;;;;;25.00;85.60;;;;;;5075767;28;20244;-67
2022/07/31 00:54:49;;;;;;;;;;;24.90;85.50;;;;;;5076092;28;19909;-67
2022/07/31 00:57:15;;;;;;;;;;;25.00;85.60;;;;;;5075698;28;19908;-66
2022/07/31 00:59:41;;;;;;;;;;;25.00;85.50;;;;;;5057542;28;19920;-67
2022/07/31 01:02:09;;;;;;;;;;;25.00;85.50;;;;;;5075553;28;19920;-67
2022/07/31 01:04:35;;;;;;;;;;;24.90;85.50;;;;;;5075552;28;19912;-67
2022/07/31 01:07:00;;;;;;;;;;;25.00;85.50;;;;;;5075528;28;19943;-67
2022/07/31 01:09:26;;;;;;;;;;;24.90;85.60;;;;;;5075345;28;20279;-67
2022/07/31 01:11:59;;;;;;;;;;;25.00;85.60;;;;;;5058049;28;20335;-67
2022/07/31 01:14:27;;;;;;;;;;;25.00;85.60;;;;;;5075719;28;19912;-67
2022/07/31 01:16:52;;;;;;;;;;;24.90;85.50;;;;;;5057821;28;20405;-67
2022/07/31 01:19:24;;;;;;;;;;;24.90;85.50;;;;;;5057657;28;20347;-67
2022/07/31 01:22:08;;;;;;;;;;;24.90;85.50;;;;;;5075486;28;19909;-67
2022/07/31 01:24:43;;;;;;;;;;;24.90;85.60;;;;;;5075443;28;20372;-67
2022/07/31 01:27:26;;;;;;;;;;;24.90;85.60;;;;;;5075122;28;19916;-67
2022/07/31 01:29:53;;;;;;;;;;;24.90;85.60;;;;;;5075084;28;19961;-67
2022/07/31 01:32:31;;;;;;;;;;;24.90;85.60;;;;;;5075011;28;20326;-66
2022/07/31 01:35:00;;;;;;;;;;;24.90;85.50;;;;;;5074943;28;19909;-67
2022/07/31 01:37:25;;;;;;;;;;;25.00;85.60;;;;;;5057289;28;19978;-67
2022/07/31 01:39:53;;;;;;;;;;;24.90;85.50;;;;;;5074920;28;20362;-67
2022/07/31 01:42:19;;;;;;;;;;;24.90;85.50;;;;;;5075017;28;19913;-66
2022/07/31 01:44:46;;;;;;;;;;;24.90;85.50;;;;;;5074729;28;20396;-67
2022/07/31 01:47:15;;;;;;;;;;;24.90;85.50;;;;;;5057040;28;20003;-67
2022/07/31 01:49:42;;;;;;;;;;;25.00;85.50;;;;;;5075011;28;19915;-67
2022/07/31 01:52:08;;;;;;;;;;;25.00;85.50;;;;;;5074870;28;20005;-67
2022/07/31 01:54:35;;;;;;;;;;;25.00;85.60;;;;;;5074482;28;20433;-67
2022/07/31 01:57:01;;;;;;;;;;;24.90;85.50;;;;;;5056821;28;19909;-67
2022/07/31 01:59:28;;;;;;;;;;;24.90;85.60;;;;;;5074598;28;19924;-67
2022/07/31 02:01:54;;;;;;;;;;;24.90;85.60;;;;;;5074458;28;19996;-67
2022/07/31 02:04:20;;;;;;;;;;;24.90;85.60;;;;;;5074451;28;19994;-67
2022/07/31 02:06:47;;;;;;;;;;;24.90;85.50;;;;;;5074618;28;19908;-67
2022/07/31 02:09:16;;;;;;;;;;;24.90;85.50;;;;;;5073657;28;20138;-67
2022/07/31 02:11:43;;;;;;;;;;;25.00;85.50;;;;;;5074514;28;19908;-67
2022/07/31 02:14:08;;;;;;;;;;;24.90;85.50;;;;;;5056568;28;19959;-67
2022/07/31 02:16:36;;;;;;;;;;;25.00;85.50;;;;;;5074045;28;19955;-67
2022/07/31 02:19:04;;;;;;;;;;;25.00;85.50;;;;;;5074444;28;19944;-67
2022/07/31 02:21:29;;;;;;;;;;;25.00;85.50;;;;;;5074326;28;19908;-67
2022/07/31 02:23:55;;;;;;;;;;;24.90;85.50;;;;;;5073912;28;20022;-67
2022/07/31 02:26:23;;;;;;;;;;;25.00;85.50;;;;;;5074300;28;19971;-67
2022/07/31 02:28:48;;;;;;;;;;;25.00;85.50;;;;;;5074249;28;19909;-67
2022/07/31 02:31:15;;;;;;;;;;;25.00;85.50;;;;;;5056260;28;20294;-67
2022/07/31 02:33:42;;;;;;;;;;;25.00;85.50;;;;;;5056182;28;20317;-67
2022/07/31 02:36:08;;;;;;;;;;;24.90;85.40;;;;;;5056192;28;19915;-67
2022/07/31 02:38:34;;;;;;;;;;;25.00;85.50;;;;;;5074133;28;19915;-67
2022/07/31 02:41:01;;;;;;;;;;;25.00;85.50;;;;;;5074162;28;20271;-67
2022/07/31 02:43:27;;;;;;;;;;;24.90;85.50;;;;;;5073995;28;19912;-67
2022/07/31 02:45:53;;;;;;;;;;;25.00;85.50;;;;;;5074387;28;20270;-67
2022/07/31 02:48:19;;;;;;;;;;;25.00;85.50;;;;;;5074002;28;19969;-67
2022/07/31 02:50:44;;;;;;;;;;;24.90;85.50;;;;;;5074085;28;20282;-67
2022/07/31 02:53:10;;;;;;;;;;;25.00;85.50;;;;;;5055916;28;19909;-67
2022/07/31 02:55:36;;;;;;;;;;;24.90;85.50;;;;;;5073714;28;20002;-67
2022/07/31 02:58:02;;;;;;;;;;;24.90;85.50;;;;;;5055914;28;20334;-67
2022/07/31 03:00:28;;;;;;;;;;;24.90;85.50;;;;;;5055655;28;19974;-66
2022/07/31 03:02:53;;;;;;;;;;;24.90;85.50;;;;;;5073450;28;20283;-67
2022/07/31 03:05:19;;;;;;;;;;;24.90;85.50;;;;;;5073748;28;19920;-67
2022/07/31 03:07:45;;;;;;;;;;;24.90;85.50;;;;;;5074166;28;19908;-67
2022/07/31 03:10:11;;;;;;;;;;;24.90;85.50;;;;;;5073410;28;19916;-67
2022/07/31 03:12:41;;;;;;;;;;;25.00;85.50;;;;;;5073751;28;19908;-67
2022/07/31 03:15:11;;;;;;;;;;;25.00;85.50;;;;;;5073359;28;19909;-67
2022/07/31 03:17:37;;;;;;;;;;;24.90;85.40;;;;;;5074008;28;20383;-67
2022/07/31 03:20:04;;;;;;;;;;;24.90;85.50;;;;;;5075110;28;19915;-67
2022/07/31 03:22:29;;;;;;;;;;;25.00;85.50;;;;;;5077605;28;19958;-67
2022/07/31 03:24:56;;;;;;;;;;;25.00;85.50;;;;;;5077331;28;19917;-67
2022/07/31 03:27:22;;;;;;;;;;;25.00;85.50;;;;;;5077291;28;19915;-67
2022/07/31 03:29:48;;;;;;;;;;;24.90;85.40;;;;;;5077304;28;19995;-67
2022/07/31 03:32:13;;;;;;;;;;;24.90;85.40;;;;;;5059662;28;19909;-67
2022/07/31 03:34:39;;;;;;;;;;;24.90;85.50;;;;;;5059343;28;19943;-67
2022/07/31 03:37:05;;;;;;;;;;;24.90;85.50;;;;;;5092987;28;20279;-67
2022/07/31 03:39:30;;;;;;;;;;;24.90;85.50;;;;;;5077346;28;19919;-67
2022/07/31 03:41:56;;;;;;;;;;;24.90;85.50;;;;;;5076864;28;19909;-67
2022/07/31 03:44:21;;;;;;;;;;;24.90;85.50;;;;;;5077283;28;19957;-67
2022/07/31 03:46:47;;;;;;;;;;;24.90;85.50;;;;;;5077157;28;19909;-67
2022/07/31 03:49:13;;;;;;;;;;;24.90;85.50;;;;;;5077461;28;20339;-67
2022/07/31 03:51:38;;;;;;;;;;;24.90;85.40;;;;;;5077085;28;19997;-67
2022/07/31 03:54:04;;;;;;;;;;;24.90;85.50;;;;;;5076971;28;19913;-67
2022/07/31 03:56:30;;;;;;;;;;;24.90;85.50;;;;;;5076976;28;19915;-67
2022/07/31 03:58:55;;;;;;;;;;;24.90;85.50;;;;;;5076669;28;19908;-67
2022/07/31 04:01:21;;;;;;;;;;;24.90;85.50;;;;;;5077026;28;19927;-66
2022/07/31 04:03:47;;;;;;;;;;;24.90;85.50;;;;;;5058924;28;19921;-67
2022/07/31 04:06:12;;;;;;;;;;;24.90;85.40;;;;;;5092368;28;19920;-67
2022/07/31 04:08:38;;;;;;;;;;;24.90;85.50;;;;;;5058474;28;20256;-67
2022/07/31 04:11:03;;;;;;;;;;;24.90;85.50;;;;;;5076598;28;19912;-67
2022/07/31 04:13:28;;;;;;;;;;;24.90;85.50;;;;;;5076234;28;19999;-67
2022/07/31 04:15:54;;;;;;;;;;;24.90;85.50;;;;;;5058494;28;19924;-67
2022/07/31 04:18:19;;;;;;;;;;;24.90;85.50;;;;;;5076234;28;20014;-66
2022/07/31 04:20:45;;;;;;;;;;;24.90;85.50;;;;;;5076557;28;19908;-67
2022/07/31 04:23:10;;;;;;;;;;;24.90;85.50;;;;;;5076102;28;19912;-67
2022/07/31 04:25:36;;;;;;;;;;;24.90;85.50;;;;;;5076410;28;20009;-67
2022/07/31 04:28:01;;;;;;;;;;;24.90;85.50;;;;;;5075950;28;19955;-67
2022/07/31 04:30:27;;;;;;;;;;;24.90;85.50;;;;;;5075902;28;19910;-67
2022/07/31 04:32:52;;;;;;;;;;;24.90;85.50;;;;;;5075873;28;20342;-67
2022/07/31 04:35:18;;;;;;;;;;;24.90;85.60;;;;;;5076230;28;19914;-67
2022/07/31 04:37:43;;;;;;;;;;;24.90;85.60;;;;;;5058329;28;20383;-67
2022/07/31 04:40:09;;;;;;;;;;;24.90;85.60;;;;;;5076187;28;19915;-67
2022/07/31 04:42:35;;;;;;;;;;;24.90;85.60;;;;;;5057991;28;19966;-67
2022/07/31 04:45:00;;;;;;;;;;;24.90;85.60;;;;;;5076155;28;19916;-67
2022/07/31 04:47:26;;;;;;;;;;;24.90;85.60;;;;;;5075969;28;19909;-67
2022/07/31 04:49:51;;;;;;;;;;;24.90;85.60;;;;;;5076399;28;19915;-67
2022/07/31 04:52:17;;;;;;;;;;;24.90;85.60;;;;;;5075765;28;19909;-67
2022/07/31 04:54:42;;;;;;;;;;;24.90;85.60;;;;;;5057923;28;19943;-67
2022/07/31 04:57:08;;;;;;;;;;;24.90;85.80;;;;;;5075970;28;20416;-67
2022/07/31 04:59:33;;;;;;;;;;;24.90;85.60;;;;;;5075530;28;19927;-67
2022/07/31 05:01:59;;;;;;;;;;;24.90;85.60;;;;;;5075845;28;19939;-66
2022/07/31 05:04:25;;;;;;;;;;;24.90;85.60;;;;;;5075527;28;19935;-67
2022/07/31 05:06:51;;;;;;;;;;;24.90;85.60;;;;;;5057771;28;19958;-66
2022/07/31 05:09:17;;;;;;;;;;;24.90;85.60;;;;;;5075678;28;19912;-67
2022/07/31 05:11:43;;;;;;;;;;;24.90;85.60;;;;;;5075217;28;20344;-67
2022/07/31 05:14:09;;;;;;;;;;;24.90;85.60;;;;;;5075188;28;19909;-66
2022/07/31 05:16:35;;;;;;;;;;;24.90;85.50;;;;;;5075406;28;19915;-67
2022/07/31 05:19:02;;;;;;;;;;;24.90;85.50;;;;;;5075795;28;19908;-67
2022/07/31 05:21:29;;;;;;;;;;;24.90;85.60;;;;;;5075073;28;19909;-66
2022/07/31 05:23:55;;;;;;;;;;;24.90;85.50;;;;;;5074995;28;19920;-66
2022/07/31 05:26:20;;;;;;;;;;;24.90;85.50;;;;;;5075349;28;19957;-67
2022/07/31 05:28:48;;;;;;;;;;;24.90;85.50;;;;;;5074925;28;19908;-67
2022/07/31 05:31:14;;;;;;;;;;;24.90;85.50;;;;;;5057299;28;19916;-67
2022/07/31 05:33:39;;;;;;;;;;;24.90;85.50;;;;;;5075115;28;20062;-67
2022/07/31 05:36:05;;;;;;;;;;;24.90;85.50;;;;;;5057182;28;19970;-67
2022/07/31 05:38:31;;;;;;;;;;;24.90;85.50;;;;;;5074826;28;19916;-67
2022/07/31 05:40:56;;;;;;;;;;;24.90;85.50;;;;;;5074813;28;19931;-67
2022/07/31 05:43:22;;;;;;;;;;;24.90;85.50;;;;;;5074225;28;20313;-66
2022/07/31 05:45:47;;;;;;;;;;;24.90;85.40;;;;;;5057117;28;20000;-67
2022/07/31 05:48:16;;;;;;;;;;;24.90;85.40;;;;;;5056937;28;19934;-67
2022/07/31 05:50:42;;;;;;;;;;;24.90;85.40;;;;;;5074805;28;19954;-67
2022/07/31 05:53:11;;;;;;;;;;;24.90;85.40;;;;;;5074989;28;19951;-67
2022/07/31 05:55:38;;;;;;;;;;;24.90;85.50;;;;;;5074632;28;19986;-67
2022/07/31 05:58:03;;;;;;;;;;;25.00;85.50;;;;;;5074596;28;19935;-67
2022/07/31 06:00:29;;;;;;;;;;;25.00;85.50;;;;;;5074444;28;19925;-67
2022/07/31 06:02:55;;;;;;;;;;;24.90;85.50;;;;;;5056494;28;19913;-67
2022/07/31 06:05:21;;;;;;;;;;;24.90;85.50;;;;;;5074101;28;19962;-67
2022/07/31 06:07:46;;;;;;;;;;;25.00;85.50;;;;;;5074237;28;19912;-67
2022/07/31 06:10:12;;;;;;;;;;;24.90;85.40;;;;;;5074124;28;19915;-67
2022/07/31 06:12:37;;;;;;;;;;;24.90;85.40;;;;;;5074083;28;19961;-68
2022/07/31 06:15:03;;;;;;;;;;;24.90;85.50;;;;;;5056477;28;19909;-66
2022/07/31 06:17:28;;;;;;;;;;;24.90;85.50;;;;;;5074343;28;20385;-66
2022/07/31 06:19:54;;;;;;;;;;;24.90;85.40;;;;;;5056372;28;19913;-66
2022/07/31 06:22:19;;;;;;;;;;;24.90;85.50;;;;;;5074352;28;20343;-67
2022/07/31 06:24:44;;;;;;;;;;;24.90;85.50;;;;;;5073901;28;19920;-67
2022/07/31 06:27:10;;;;;;;;;;;24.90;85.40;;;;;;5074174;28;19909;-67
2022/07/31 06:29:36;;;;;;;;;;;24.90;85.40;;;;;;5073720;28;19948;-67
2022/07/31 06:32:02;;;;;;;;;;;24.90;85.40;;;;;;5073892;28;19915;-67
2022/07/31 06:34:27;;;;;;;;;;;24.90;85.50;;;;;;5073885;28;19999;-67
2022/07/31 06:36:53;;;;;;;;;;;24.90;85.40;;;;;;5056132;28;20003;-66
2022/07/31 06:39:18;;;;;;;;;;;24.90;85.50;;;;;;5074019;28;20260;-67
2022/07/31 06:41:44;;;;;;;;;;;24.90;85.50;;;;;;5056053;28;19916;-66
2022/07/31 06:44:09;;;;;;;;;;;24.90;85.40;;;;;;5073931;28;19916;-67
2022/07/31 06:46:35;;;;;;;;;;;24.90;85.50;;;;;;5073972;28;19939;-67
2022/07/31 06:49:00;;;;;;;;;;;24.90;85.50;;;;;;5073581;28;20347;-66
2022/07/31 06:51:26;;;;;;;;;;;24.90;85.40;;;;;;5073672;28;19916;-67
2022/07/31 06:53:51;;;;;;;;;;;24.90;85.50;;;;;;5055660;28;19908;-67
2022/07/31 06:56:17;;;;;;;;;;;24.90;85.70;;;;;;5073514;28;19977;-67
2022/07/31 06:58:42;;;;;;;;;;;24.90;85.40;;;;;;5056001;28;20011;-67
2022/07/31 07:01:08;;;;;;;;;;;25.00;85.50;;;;;;5074283;28;19920;-67
2022/07/31 07:03:33;;;;;;;;;;;25.00;85.50;;;;;;5055538;28;19913;-67
2022/07/31 07:05:59;;;;;;;;;;;24.90;85.50;;;;;;5073538;28;20278;-66
2022/07/31 07:08:24;;;;;;;;;;;24.90;85.40;;;;;;5073456;28;19916;-66
2022/07/31 07:10:50;;;;;;;;;;;25.00;85.50;;;;;;5073413;28;19909;-66
2022/07/31 07:13:15;;;;;;;;;;;25.00;85.50;;;;;;5055780;28;20000;-67
2022/07/31 07:15:41;;;;;;;;;;;25.00;85.50;;;;;;5055497;28;19912;-67
2022/07/31 07:18:06;;;;;;;;;;;25.00;85.50;;;;;;5073405;28;20004;-67
2022/07/31 07:20:32;;;;;;;;;;;24.90;85.40;;;;;;5055672;28;19908;-67
2022/07/31 07:22:58;;;;;;;;;;;25.00;85.50;;;;;;5073316;28;20315;-67
2022/07/31 07:25:23;;;;;;;;;;;24.90;85.40;;;;;;5073489;28;19960;-66
2022/07/31 07:27:49;;;;;;;;;;;24.90;85.60;;;;;;5055409;28;19931;-67
2022/07/31 07:30:14;;;;;;;;;;;25.00;85.50;;;;;;5073135;28;20053;-67
2022/07/31 07:32:39;;;;;;;;;;;25.00;85.50;;;;;;5072950;28;19951;-67
2022/07/31 07:35:07;;;;;;;;;;;24.90;85.40;;;;;;5073113;28;19915;-67
2022/07/31 07:37:33;;;;;;;;;;;24.90;85.40;;;;;;5073419;28;19909;-67
2022/07/31 07:39:59;;;;;;;;;;;25.00;85.50;;;;;;5073430;28;19920;-67
2022/07/31 07:42:24;;;;;;;;;;;25.00;85.50;;;;;;5073549;28;19916;-67
2022/07/31 07:44:50;;;;;;;;;;;25.00;85.40;;;;;;5073424;28;19919;-68
2022/07/31 07:47:15;;;;;;;;;;;25.00;85.40;;;;;;5073619;28;19934;-67
2022/07/31 07:49:41;;;;;;;;;;;25.00;85.50;;;;;;5073731;28;20413;-67
2022/07/31 07:52:07;;;;;;;;;;;25.00;85.40;;;;;;5073060;28;19915;-67
2022/07/31 07:54:32;;;;;;;;;;;25.00;85.40;;;;;;5073159;28;19930;-67
2022/07/31 07:56:58;;;;;;;;;;;25.00;85.40;;;;;;5072958;28;19909;-67
2022/07/31 07:59:23;;;;;;;;;;;25.00;85.40;;;;;;5073110;28;19967;-67
2022/07/31 08:01:49;;;;;;;;;;;25.00;85.40;;;;;;5088630;28;20366;-67
2022/07/31 08:04:15;;;;;;;;;;;25.00;85.90;;;;;;5072806;28;19912;-67
2022/07/31 08:06:40;;;;;;;;;;;25.00;85.40;;;;;;5057586;28;19938;-67
2022/07/31 08:09:06;;;;;;;;;;;25.00;85.40;;;;;;5058663;28;19997;-67
2022/07/31 08:11:32;;;;;;;;;;;25.00;85.40;;;;;;5058422;28;19913;-67
2022/07/31 08:13:57;;;;;;;;;;;25.10;85.40;;;;;;5058503;28;19915;-67
2022/07/31 08:16:23;;;;;;;;;;;25.00;85.40;;;;;;5076713;28;19914;-67
2022/07/31 08:18:50;;;;;;;;;;;25.00;85.40;;;;;;5058580;28;20325;-67
2022/07/31 08:21:15;;;;;;;;;;;25.00;85.40;;;;;;5058160;28;19932;-67
2022/07/31 08:23:41;;;;;;;;;;;25.00;85.40;;;;;;5076259;28;20355;-67
2022/07/31 08:26:09;;;;;;;;;;;25.00;85.40;;;;;;5075960;28;19913;-67
2022/07/31 08:28:35;;;;;;;;;;;25.00;85.40;;;;;;5058326;28;19912;-67
2022/07/31 08:31:01;;;;;;;;;;;25.00;85.40;;;;;;5076368;28;19914;-67
2022/07/31 08:33:26;;;;;;;;;;;25.00;85.40;;;;;;5076281;28;19908;-67
2022/07/31 08:35:52;;;;;;;;;;;25.00;85.40;;;;;;5076499;28;19946;-67
2022/07/31 08:38:18;;;;;;;;;;;25.00;85.40;;;;;;5076536;28;20294;-67
2022/07/31 08:40:44;;;;;;;;;;;25.00;85.40;;;;;;5058049;28;19915;-67
2022/07/31 08:43:10;;;;;;;;;;;25.00;85.40;;;;;;5057818;28;19912;-67
2022/07/31 08:45:36;;;;;;;;;;;25.00;85.40;;;;;;5058133;28;19912;-67
2022/07/31 08:48:03;;;;;;;;;;;25.00;85.40;;;;;;5075928;28;19908;-67
2022/07/31 08:50:28;;;;;;;;;;;25.00;85.40;;;;;;5075965;28;19909;-67
2022/07/31 08:52:55;;;;;;;;;;;25.00;85.40;;;;;;5057838;28;20329;-67
2022/07/31 08:55:21;;;;;;;;;;;25.00;85.40;;;;;;5075493;28;19909;-68
2022/07/31 08:57:47;;;;;;;;;;;25.00;85.40;;;;;;5075816;28;19970;-67
2022/07/31 09:00:16;;;;;;;;;;;25.00;85.40;;;;;;5075663;28;20359;-67
2022/07/31 09:02:42;;;;;;;;;;;25.10;85.40;;;;;;5075850;28;20011;-67
2022/07/31 09:05:07;;;;;;;;;;;25.00;85.40;;;;;;5075484;28;19913;-69
2022/07/31 09:07:33;;;;;;;;;;;25.00;85.40;;;;;;5075723;28;19916;-68
2022/07/31 09:09:58;;;;;;;;;;;25.00;85.40;;;;;;5075603;28;19909;-67
2022/07/31 09:12:28;;;;;;;;;;;25.00;85.40;;;;;;5057522;28;19949;-68
2022/07/31 09:14:53;;;;;;;;;;;25.00;85.40;;;;;;5057429;28;19908;-67
2022/07/31 09:17:29;;;;;;;;;;;25.00;85.40;;;;;;5073747;28;20057;-68
2022/07/31 09:19:54;;;;;;;;;;;25.00;85.40;;;;;;5057218;28;19918;-68
2022/07/31 09:22:21;;;;;;;;;;;25.00;85.30;;;;;;5075632;28;20003;-67
2022/07/31 09:24:46;;;;;;;;;;;25.00;85.40;;;;;;5075405;28;19913;-68
2022/07/31 09:27:16;;;;;;;;;;;25.00;85.30;;;;;;5074857;28;19916;-66
2022/07/31 09:29:43;;;;;;;;;;;25.00;85.30;;;;;;5057188;28;19909;-66
2022/07/31 09:32:18;;;;;;;;;;;25.00;85.30;;;;;;5075516;28;19909;-66
2022/07/31 09:34:44;;;;;;;;;;;25.00;85.40;;;;;;5056997;28;19913;-66
2022/07/31 09:37:16;;;;;;;;;;;25.00;85.40;;;;;;5074640;28;19909;-66
2022/07/31 09:39:52;;;;;;;;;;;25.00;85.40;;;;;;5075255;28;19908;-66
2022/07/31 09:42:18;;;;;;;;;;;25.00;85.40;;;;;;5056675;28;19914;-64
2022/07/31 09:44:44;;;;;;;;;;;25.00;85.40;;;;;;5074283;28;20274;-64
2022/07/31 09:47:27;;;;;;;;;;;25.00;85.40;;;;;;5056745;28;19909;-64
2022/07/31 09:49:55;;;;;;;;;;;25.00;85.40;;;;;;5074949;28;19909;-64
2022/07/31 09:52:21;;;;;;;;;;;25.00;85.30;;;;;;5075076;28;19912;-64
2022/07/31 09:54:46;;;;;;;;;;;25.00;85.30;;;;;;5074340;28;19912;-64
2022/07/31 09:57:13;;;;;;;;;;;25.00;85.30;;;;;;5074265;28;20049;-64
2022/07/31 09:59:38;;;;;;;;;;;25.00;85.40;;;;;;5074352;28;19947;-64
2022/07/31 10:02:04;;;;;;;;;;;25.00;85.40;;;;;;5074682;28;20247;-64
2022/07/31 10:04:30;;;;;;;;;;;25.00;85.30;;;;;;5074391;28;19931;-64
2022/07/31 10:06:55;;;;;;;;;;;25.00;85.30;;;;;;5056522;28;19915;-64
2022/07/31 10:09:22;;;;;;;;;;;25.00;85.40;;;;;;5073819;28;20286;-66
2022/07/31 10:11:49;;;;;;;;;;;25.00;85.30;;;;;;5073914;28;20352;-66
2022/07/31 10:14:17;;;;;;;;;;;25.00;85.30;;;;;;5056221;28;19912;-64
2022/07/31 10:16:43;;;;;;;;;;;25.00;85.20;;;;;;5074200;28;20000;-65
2022/07/31 10:19:11;;;;;;;;;;;25.00;85.30;;;;;;5074246;28;19955;-64
2022/07/31 10:21:39;;;;;;;;;;;25.00;85.30;;;;;;5073842;28;19908;-64
2022/07/31 10:24:06;;;;;;;;;;;25.00;85.30;;;;;;5073681;28;19916;-64
2022/07/31 10:26:32;;;;;;;;;;;25.00;85.30;;;;;;5074077;28;19920;-64
2022/07/31 10:28:58;;;;;;;;;;;25.00;85.30;;;;;;5073500;28;20379;-64
2022/07/31 10:31:24;;;;;;;;;;;25.00;85.30;;;;;;5073769;28;19909;-66
2022/07/31 10:33:49;;;;;;;;;;;25.00;85.30;;;;;;5056091;28;19943;-65
2022/07/31 10:36:24;;;;;;;;;;;25.00;85.30;;;;;;5073676;28;19915;-64
2022/07/31 10:38:49;;;;;;;;;;;25.00;85.40;;;;;;5074276;28;19908;-64
2022/07/31 10:41:45;;;;;;;;;;;25.00;85.30;;;;;;5055932;28;19909;-65
2022/07/31 10:44:12;;;;;;;;;;;25.00;85.30;;;;;;5056056;28;20286;-64
2022/07/31 10:46:37;;;;;;;;;;;25.00;85.30;;;;;;5073704;28;19970;-64
2022/07/31 10:49:03;;;;;;;;;;;25.00;85.30;;;;;;5073800;28;20309;-65
2022/07/31 10:51:30;;;;;;;;;;;25.00;85.30;;;;;;5073716;28;19909;-65
2022/07/31 10:53:56;;;;;;;;;;;25.00;85.30;;;;;;5074209;28;19909;-66
2022/07/31 10:56:22;;;;;;;;;;;25.00;85.20;;;;;;5074028;28;19913;-64
2022/07/31 10:58:49;;;;;;;;;;;25.00;85.30;;;;;;5073534;28;19983;-65
2022/07/31 11:01:14;;;;;;;;;;;25.00;85.30;;;;;;5073920;28;20031;-65
2022/07/31 11:03:52;;;;;;;;;;;25.00;85.30;;;;;;5073631;28;20032;-64
2022/07/31 11:06:17;;;;;;;;;;;25.00;85.30;;;;;;5073517;28;20011;-63
2022/07/31 11:08:51;;;;;;;;;;;25.00;85.30;;;;;;5073695;28;20323;-65
2022/07/31 11:11:17;;;;;;;;;;;25.00;85.30;;;;;;5073426;28;20339;-64
2022/07/31 11:13:45;;;;;;;;;;;25.00;85.30;;;;;;5073481;28;20007;-65
2022/07/31 11:16:10;;;;;;;;;;;25.00;85.30;;;;;;5055588;28;20381;-63
2022/07/31 11:18:36;;;;;;;;;;;25.00;85.20;;;;;;5073513;28;20007;-65
2022/07/31 11:21:03;;;;;;;;;;;25.10;85.20;;;;;;5073555;28;20428;-64
2022/07/31 11:23:29;;;;;;;;;;;25.00;85.20;;;;;;5073121;28;19913;-64
2022/07/31 11:25:57;;;;;;;;;;;25.00;85.20;;;;;;5073172;28;19917;-64
2022/07/31 11:28:25;;;;;;;;;;;25.10;85.20;;;;;;5073774;28;19962;-65
2022/07/31 11:31:06;;;;;;;;;;;25.00;85.10;;;;;;5073237;28;19940;-65
2022/07/31 11:33:33;;;;;;;;;;;25.00;85.10;;;;;;5055543;28;19919;-64
2022/07/31 11:36:18;;;;;;;;;;;25.10;85.10;;;;;;5072923;28;19954;-64
2022/07/31 11:38:46;;;;;;;;;;;25.00;85.10;;;;;;5073810;28;19957;-64
2022/07/31 11:41:11;;;;;;;;;;;25.10;85.20;;;;;;5056960;28;20355;-65
2022/07/31 11:43:41;;;;;;;;;;;25.00;85.10;;;;;;5076880;28;19955;-65
2022/07/31 11:46:07;;;;;;;;;;;25.10;85.20;;;;;;5058711;28;20015;-65
2022/07/31 11:48:32;;;;;;;;;;;25.00;85.10;;;;;;5076597;28;19952;-64
2022/07/31 11:50:59;;;;;;;;;;;25.10;85.10;;;;;;5077116;28;19908;-65
2022/07/31 11:53:25;;;;;;;;;;;25.10;85.20;;;;;;5076562;28;20291;-65
2022/07/31 11:55:50;;;;;;;;;;;25.10;85.20;;;;;;5076675;28;19908;-63
2022/07/31 11:58:17;;;;;;;;;;;25.10;85.20;;;;;;5076149;28;20378;-65
2022/07/31 12:00:56;;;;;;;;;;;25.00;85.10;;;;;;5058257;28;20428;-65
2022/07/31 12:03:23;;;;;;;;;;;25.10;85.10;;;;;;5076456;28;19912;-65
2022/07/31 12:05:51;;;;;;;;;;;25.10;85.10;;;;;;5058598;28;20195;-65
2022/07/31 12:08:16;;;;;;;;;;;25.10;85.10;;;;;;5076454;28;19909;-66
2022/07/31 12:10:42;;;;;;;;;;;25.10;85.10;;;;;;5076724;28;19931;-65
2022/07/31 12:13:11;;;;;;;;;;;25.10;85.10;;;;;;5059150;28;19908;-66
2022/07/31 12:15:37;;;;;;;;;;;25.10;85.10;;;;;;5058842;28;19916;-66
2022/07/31 12:18:04;;;;;;;;;;;25.10;85.20;;;;;;5076596;28;19909;-65
2022/07/31 12:20:30;;;;;;;;;;;25.10;85.10;;;;;;5076372;28;19909;-66
2022/07/31 12:22:57;;;;;;;;;;;25.10;85.10;;;;;;5076241;28;19912;-64
2022/07/31 12:25:22;;;;;;;;;;;25.10;85.10;;;;;;5076337;28;19920;-66
2022/07/31 12:27:51;;;;;;;;;;;25.10;85.10;;;;;;5076042;28;19908;-65
2022/07/31 12:30:17;;;;;;;;;;;25.10;85.20;;;;;;5058165;28;19909;-65
2022/07/31 12:32:43;;;;;;;;;;;25.10;85.20;;;;;;5075972;28;19935;-65
2022/07/31 12:35:08;;;;;;;;;;;25.10;85.20;;;;;;5076152;28;20065;-66
2022/07/31 12:37:44;;;;;;;;;;;25.00;85.10;;;;;;5058314;28;19912;-65
2022/07/31 12:40:20;;;;;;;;;;;25.10;85.20;;;;;;5076135;28;20412;-65
2022/07/31 12:42:45;;;;;;;;;;;25.10;85.20;;;;;;5058024;28;19913;-64
2022/07/31 12:45:11;;;;;;;;;;;25.10;85.20;;;;;;5075896;28;20045;-65
2022/07/31 12:47:36;;;;;;;;;;;25.10;85.20;;;;;;5075816;28;19952;-64
2022/07/31 12:50:02;;;;;;;;;;;25.10;85.10;;;;;;5091424;28;19909;-64
2022/07/31 12:52:30;;;;;;;;;;;25.10;85.10;;;;;;5075723;28;19909;-64
2022/07/31 12:54:55;;;;;;;;;;;25.10;85.10;;;;;;5057960;28;19908;-65
2022/07/31 12:57:21;;;;;;;;;;;25.10;85.10;;;;;;5075603;28;19909;-64
2022/07/31 12:59:46;;;;;;;;;;;25.10;85.10;;;;;;5075507;28;19990;-65
2022/07/31 13:02:12;;;;;;;;;;;25.10;85.10;;;;;;5075664;28;19997;-64
2022/07/31 13:04:37;;;;;;;;;;;25.10;85.10;;;;;;5057692;28;19919;-64
2022/07/31 13:07:03;;;;;;;;;;;25.10;85.10;;;;;;5075531;28;20001;-64
2022/07/31 13:09:28;;;;;;;;;;;25.10;85.10;;;;;;5075162;28;19954;-65
2022/07/31 13:11:54;;;;;;;;;;;25.10;85.10;;;;;;5075129;28;19913;-65
2022/07/31 13:14:20;;;;;;;;;;;25.10;85.20;;;;;;5057528;28;19932;-65
2022/07/31 13:16:46;;;;;;;;;;;25.10;85.10;;;;;;5075247;28;19909;-65
2022/07/31 13:19:12;;;;;;;;;;;25.10;85.10;;;;;;5075690;28;19915;-65
2022/07/31 13:21:38;;;;;;;;;;;25.10;85.10;;;;;;5075761;28;19908;-65
2022/07/31 13:24:05;;;;;;;;;;;25.10;85.10;;;;;;5075221;28;19913;-65
2022/07/31 13:26:32;;;;;;;;;;;25.10;85.10;;;;;;5075363;28;19912;-65
2022/07/31 13:28:57;;;;;;;;;;;25.10;85.10;;;;;;5075004;28;19908;-65
2022/07/31 13:31:23;;;;;;;;;;;25.10;85.10;;;;;;5074755;28;19931;-66
2022/07/31 13:33:48;;;;;;;;;;;25.10;85.10;;;;;;5075334;28;20323;-66
2022/07/31 13:36:14;;;;;;;;;;;25.10;85.10;;;;;;5074984;28;19919;-65
2022/07/31 13:38:39;;;;;;;;;;;25.10;85.10;;;;;;5074632;28;19909;-63
2022/07/31 13:41:19;;;;;;;;;;;25.10;85.10;;;;;;5074700;28;19919;-65
2022/07/31 13:43:45;;;;;;;;;;;25.10;85.10;;;;;;5074742;28;20094;-65
2022/07/31 13:46:11;;;;;;;;;;;25.10;85.10;;;;;;5074834;28;20418;-65
2022/07/31 13:48:36;;;;;;;;;;;25.10;85.00;;;;;;5074967;28;20011;-65
2022/07/31 13:51:02;;;;;;;;;;;25.10;85.00;;;;;;5074755;28;19909;-65
2022/07/31 13:53:28;;;;;;;;;;;25.10;85.00;;;;;;5056943;28;20314;-65
2022/07/31 13:55:54;;;;;;;;;;;25.10;85.00;;;;;;5074444;28;19917;-66
2022/07/31 13:58:19;;;;;;;;;;;25.10;85.00;;;;;;5074564;28;19916;-65
2022/07/31 14:00:45;;;;;;;;;;;25.10;85.00;;;;;;5056448;28;19928;-65
2022/07/31 14:03:11;;;;;;;;;;;25.10;85.00;;;;;;5073573;28;19959;-66
2022/07/31 14:05:37;;;;;;;;;;;25.10;85.00;;;;;;5074247;28;19981;-64
2022/07/31 14:08:02;;;;;;;;;;;25.10;85.00;;;;;;5074358;28;20419;-65
2022/07/31 14:10:28;;;;;;;;;;;25.10;85.00;;;;;;5074463;28;19913;-65
2022/07/31 14:12:53;;;;;;;;;;;25.10;85.00;;;;;;5089888;28;20002;-65